Time;durP1;ratioP1;P1;durP2;ratioP2;P2;SDS_P1;SDS_P2;PMS_P1;PMS_P2;Temp;Humidity;BMP_temperature;BMP_pressure;BME280_temperature;BME280_humidity;BME280_pressure;Samples;Min_cycle;Max_cycle;Signal;HPM_P1;HPM_P2
2022/02/14 00:00:19;;;;;;;14.73;3.67;;;9.60;84.60;;;;;;5059248;28;20439;-42
2022/02/14 00:02:46;;;;;;;21.80;5.07;;;9.60;84.40;;;;;;5059266;28;20376;-43
2022/02/14 00:05:12;;;;;;;18.85;4.78;;;9.60;84.60;;;;;;5058932;28;20031;-43
2022/02/14 00:07:38;;;;;;;16.10;4.25;;;9.50;84.70;;;;;;5058670;28;20104;-43
2022/02/14 00:10:06;;;;;;;14.95;4.32;;;9.50;84.70;;;;;;5058907;28;20074;-43
2022/02/14 00:12:33;;;;;;;16.73;3.90;;;9.50;84.70;;;;;;5059066;28;20032;-43
2022/02/14 00:14:58;;;;;;;16.63;4.05;;;9.40;84.50;;;;;;5058809;28;20017;-43
2022/02/14 00:17:24;;;;;;;11.88;3.38;;;9.40;84.70;;;;;;5058550;28;20104;-42
2022/02/14 00:19:51;;;;;;;13.25;3.15;;;9.40;84.40;;;;;;5058729;28;20033;-43
2022/02/14 00:22:24;;;;;;;17.65;4.55;;;9.40;84.60;;;;;;5058166;28;20057;-42
2022/02/14 00:24:51;;;;;;;20.58;4.78;;;9.30;84.60;;;;;;5058274;28;20127;-42
2022/02/14 00:27:18;;;;;;;19.63;5.20;;;9.30;84.50;;;;;;5057080;28;20029;-44
2022/02/14 00:29:44;;;;;;;19.13;4.43;;;9.20;84.70;;;;;;5058574;28;20013;-42
2022/02/14 00:32:10;;;;;;;21.60;5.97;;;9.30;84.90;;;;;;5057925;28;20074;-42
2022/02/14 00:34:36;;;;;;;17.63;4.20;;;9.20;84.80;;;;;;5058065;28;20056;-43
2022/02/14 00:37:03;;;;;;;16.35;3.95;;;9.20;84.80;;;;;;5058073;28;20059;-42
2022/02/14 00:39:29;;;;;;;18.30;4.28;;;9.20;84.90;;;;;;5057803;28;20025;-42
2022/02/14 00:41:55;;;;;;;18.05;3.15;;;9.20;84.70;;;;;;5058227;28;20377;-42
2022/02/14 00:44:21;;;;;;;16.13;3.50;;;9.30;84.90;;;;;;5058436;28;20029;-43
2022/02/14 00:46:46;;;;;;;12.27;3.15;;;9.30;84.70;;;;;;5057858;28;20511;-43
2022/02/14 00:49:12;;;;;;;14.30;3.40;;;9.30;84.50;;;;;;5058026;28;20032;-42
2022/02/14 00:51:38;;;;;;;13.90;3.00;;;9.30;84.40;;;;;;5056516;28;20074;-43
2022/02/14 00:54:04;;;;;;;13.38;2.90;;;9.30;84.70;;;;;;5057560;28;20056;-43
2022/02/14 00:56:30;;;;;;;9.65;2.63;;;9.30;84.40;;;;;;5056279;28;20051;-42
2022/02/14 00:58:55;;;;;;;9.73;2.15;;;9.30;84.40;;;;;;5057721;28;20032;-42
2022/02/14 01:01:21;;;;;;;8.77;2.28;;;9.20;84.50;;;;;;5057704;28;20021;-42
2022/02/14 01:03:48;;;;;;;11.60;2.80;;;9.20;84.30;;;;;;5058141;28;20027;-43
2022/02/14 01:06:14;;;;;;;7.88;2.35;;;9.20;84.30;;;;;;5057745;28;20017;-44
2022/02/14 01:08:40;;;;;;;11.35;2.85;;;9.20;84.30;;;;;;5057720;28;20109;-43
2022/02/14 01:11:06;;;;;;;12.13;2.80;;;9.20;84.30;;;;;;5057547;28;20017;-42
2022/02/14 01:13:32;;;;;;;15.85;3.22;;;9.10;84.20;;;;;;5057536;28;20108;-42
2022/02/14 01:15:58;;;;;;;9.82;2.47;;;9.10;84.10;;;;;;5057488;28;20092;-42
2022/02/14 01:18:24;;;;;;;12.80;2.25;;;9.10;84.20;;;;;;5057187;28;20099;-42
2022/02/14 01:20:50;;;;;;;11.18;2.58;;;9.10;84.30;;;;;;5057338;28;20095;-45
2022/02/14 01:23:16;;;;;;;11.98;2.47;;;9.00;84.10;;;;;;5057548;28;20477;-43
2022/02/14 01:25:42;;;;;;;9.40;2.33;;;9.00;84.10;;;;;;5057232;28;20053;-42
2022/02/14 01:28:08;;;;;;;10.00;2.30;;;9.00;84.30;;;;;;5057471;28;20067;-42
2022/02/14 01:30:33;;;;;;;10.18;2.20;;;9.00;84.50;;;;;;5057351;28;20025;-42
2022/02/14 01:33:00;;;;;;;9.18;1.95;;;9.00;84.50;;;;;;5057797;28;20962;-43
2022/02/14 01:35:28;;;;;;;11.50;2.30;;;9.00;84.60;;;;;;5057361;28;20025;-42
2022/02/14 01:37:54;;;;;;;13.90;2.75;;;9.10;84.70;;;;;;5057436;28;20082;-43
2022/02/14 01:40:21;;;;;;;7.18;1.60;;;9.10;84.50;;;;;;5057060;28;20025;-42
2022/02/14 01:42:46;;;;;;;5.38;1.10;;;9.10;84.00;;;;;;5057170;28;20029;-42
2022/02/14 01:45:13;;;;;;;5.35;1.83;;;9.10;83.70;;;;;;5057698;28;20350;-42
2022/02/14 01:47:40;;;;;;;7.32;2.17;;;9.10;83.80;;;;;;5057146;28;20517;-45
2022/02/14 01:50:07;;;;;;;9.23;1.30;;;9.00;83.50;;;;;;5057096;28;20024;-42
2022/02/14 01:52:35;;;;;;;7.25;2.25;;;9.00;83.50;;;;;;5057519;28;20025;-42
2022/02/14 01:55:06;;;;;;;5.15;1.45;;;9.00;83.80;;;;;;5057172;28;20092;-42
2022/02/14 01:57:34;;;;;;;4.38;1.58;;;8.90;83.40;;;;;;5056920;28;20401;-44
2022/02/14 02:00:00;;;;;;;10.55;3.25;;;8.90;83.30;;;;;;5057292;28;20021;-42
2022/02/14 02:02:26;;;;;;;6.05;1.30;;;8.90;83.60;;;;;;5056848;28;20029;-43
2022/02/14 02:04:52;;;;;;;6.43;1.80;;;8.80;83.60;;;;;;5057395;28;20014;-42
2022/02/14 02:07:18;;;;;;;10.32;2.28;;;8.80;83.50;;;;;;5059924;28;20017;-44
2022/02/14 02:09:45;;;;;;;10.63;2.53;;;8.80;83.60;;;;;;5060878;28;20070;-42
2022/02/14 02:12:23;;;;;;;8.25;2.20;;;8.80;83.90;;;;;;5060940;28;20048;-43
2022/02/14 02:14:54;;;;;;;11.45;2.60;;;8.70;83.80;;;;;;5060943;28;20045;-42
2022/02/14 02:17:24;;;;;;;11.27;3.38;;;8.70;83.80;;;;;;5060854;28;20060;-42
2022/02/14 02:19:50;;;;;;;10.88;2.90;;;8.70;83.90;;;;;;5060841;28;20112;-42
2022/02/14 02:22:16;;;;;;;15.95;4.00;;;8.70;84.00;;;;;;5060003;28;20079;-42
2022/02/14 02:24:49;;;;;;;11.90;2.97;;;8.70;84.20;;;;;;5060631;28;20510;-42
2022/02/14 02:27:16;;;;;;;15.25;4.13;;;8.70;84.10;;;;;;5060634;28;20059;-42
2022/02/14 02:29:42;;;;;;;13.32;3.60;;;8.70;84.10;;;;;;5060764;28;20488;-43
2022/02/14 02:32:10;;;;;;;13.05;3.58;;;8.70;84.20;;;;;;5060441;28;20021;-43
2022/02/14 02:34:41;;;;;;;14.50;4.10;;;8.70;84.30;;;;;;5060787;28;20121;-42
2022/02/14 02:37:09;;;;;;;16.60;3.17;;;8.70;84.50;;;;;;5060466;28;20037;-42
2022/02/14 02:39:36;;;;;;;15.77;3.50;;;8.70;84.60;;;;;;5060393;28;20481;-42
2022/02/14 02:42:06;;;;;;;13.55;3.35;;;8.80;84.60;;;;;;5060427;28;20040;-42
2022/02/14 02:44:33;;;;;;;21.55;3.72;;;8.80;84.80;;;;;;5060474;28;20021;-42
2022/02/14 02:47:07;;;;;;;16.63;4.20;;;8.80;84.80;;;;;;5060380;28;20037;-42
2022/02/14 02:49:34;;;;;;;19.65;4.28;;;8.80;84.70;;;;;;5060399;28;20547;-42
2022/02/14 02:52:00;;;;;;;17.10;4.40;;;8.80;84.50;;;;;;5060288;28;20100;-42
2022/02/14 02:54:27;;;;;;;14.15;3.67;;;8.80;84.60;;;;;;5060144;28;20017;-42
2022/02/14 02:56:55;;;;;;;15.85;4.43;;;8.80;84.50;;;;;;5060037;28;20440;-44
2022/02/14 02:59:23;;;;;;;18.77;3.80;;;8.80;84.50;;;;;;5060101;28;20033;-42
2022/02/14 03:01:49;;;;;;;13.15;3.15;;;8.80;84.60;;;;;;5059940;28;20029;-42
2022/02/14 03:04:15;;;;;;;16.13;4.38;;;8.80;84.30;;;;;;5059891;28;20021;-43
2022/02/14 03:06:41;;;;;;;19.23;4.43;;;8.80;84.40;;;;;;5059983;28;20036;-43
2022/02/14 03:09:08;;;;;;;23.15;5.45;;;8.80;84.20;;;;;;5060165;28;20021;-42
2022/02/14 03:11:35;;;;;;;23.60;6.15;;;8.80;84.30;;;;;;5059802;28;20514;-45
2022/02/14 03:14:01;;;;;;;22.63;5.70;;;8.80;84.30;;;;;;5059909;28;20017;-42
2022/02/14 03:16:27;;;;;;;23.67;4.93;;;8.80;84.40;;;;;;5059689;28;20075;-42
2022/02/14 03:18:53;;;;;;;22.13;4.70;;;8.80;84.10;;;;;;5059019;28;20025;-42
2022/02/14 03:21:22;;;;;;;19.20;4.55;;;8.80;84.10;;;;;;5059459;28;20049;-42
2022/02/14 03:23:49;;;;;;;17.80;4.15;;;8.70;84.20;;;;;;5059498;28;20029;-43
2022/02/14 03:26:17;;;;;;;22.02;6.47;;;8.70;84.40;;;;;;5059306;28;20603;-43
2022/02/14 03:28:44;;;;;;;23.10;5.40;;;8.70;84.40;;;;;;5059489;28;20029;-42
2022/02/14 03:31:11;;;;;;;18.83;4.95;;;8.70;84.20;;;;;;5059458;28;20105;-44
2022/02/14 03:33:37;;;;;;;21.42;4.18;;;8.70;84.40;;;;;;5059921;28;20029;-44
2022/02/14 03:36:03;;;;;;;20.42;4.97;;;8.70;84.20;;;;;;5059467;28;20017;-43
2022/02/14 03:38:29;;;;;;;19.20;3.67;;;8.70;84.40;;;;;;5059322;28;20033;-41
2022/02/14 03:40:55;;;;;;;18.55;3.65;;;8.70;84.90;;;;;;5059341;28;20031;-42
2022/02/14 03:43:21;;;;;;;14.05;3.95;;;8.70;84.40;;;;;;5059667;28;20033;-42
2022/02/14 03:45:47;;;;;;;12.02;4.07;;;8.70;84.40;;;;;;5059188;28;20025;-43
2022/02/14 03:48:13;;;;;;;14.32;3.03;;;8.70;84.20;;;;;;5058941;28;20052;-42
2022/02/14 03:50:39;;;;;;;11.70;3.03;;;8.70;84.40;;;;;;5058542;28;20023;-43
2022/02/14 03:53:05;;;;;;;7.78;2.63;;;8.70;84.40;;;;;;5058368;28;20029;-42
2022/02/14 03:55:31;;;;;;;15.00;2.75;;;8.70;84.30;;;;;;5058908;28;20027;-42
2022/02/14 03:57:57;;;;;;;10.48;2.67;;;8.70;84.30;;;;;;5059127;28;20035;-42
2022/02/14 04:00:24;;;;;;;14.23;3.38;;;8.70;84.10;;;;;;5059042;28;20480;-44
2022/02/14 04:02:51;;;;;;;15.30;2.67;;;8.70;84.30;;;;;;5058981;28;20032;-42
2022/02/14 04:05:18;;;;;;;11.50;1.88;;;8.70;84.40;;;;;;5059006;28;20025;-43
2022/02/14 04:07:45;;;;;;;15.05;2.47;;;8.70;84.50;;;;;;5058781;28;20043;-42
2022/02/14 04:10:13;;;;;;;16.33;2.67;;;8.80;84.70;;;;;;5058832;28;20074;-42
2022/02/14 04:12:40;;;;;;;11.90;2.85;;;8.80;84.80;;;;;;5058838;28;20056;-42
2022/02/14 04:15:07;;;;;;;14.48;4.28;;;8.80;84.90;;;;;;5058488;28;20096;-43
2022/02/14 04:17:33;;;;;;;12.30;3.25;;;8.80;84.90;;;;;;5058954;28;20115;-43
2022/02/14 04:19:59;;;;;;;13.45;3.05;;;8.90;84.90;;;;;;5058610;28;20114;-43
2022/02/14 04:22:26;;;;;;;15.90;3.40;;;8.90;84.70;;;;;;5057945;28;20056;-42
2022/02/14 04:24:52;;;;;;;10.07;2.65;;;8.90;84.90;;;;;;5058591;28;20036;-42
2022/02/14 04:27:18;;;;;;;13.13;2.90;;;8.90;84.70;;;;;;5058459;28;20421;-43
2022/02/14 04:29:44;;;;;;;18.65;3.22;;;8.90;84.60;;;;;;5057264;28;20021;-42
2022/02/14 04:32:10;;;;;;;11.90;2.83;;;8.90;84.60;;;;;;5058359;28;20041;-42
2022/02/14 04:34:36;;;;;;;13.80;3.05;;;8.90;84.80;;;;;;5058058;28;20072;-43
2022/02/14 04:37:02;;;;;;;11.63;2.50;;;8.90;84.60;;;;;;5058535;28;20037;-42
2022/02/14 04:39:28;;;;;;;14.00;3.45;;;8.90;84.60;;;;;;5058138;28;20103;-43
2022/02/14 04:41:54;;;;;;;16.38;3.63;;;8.90;84.60;;;;;;5058157;28;20029;-43
2022/02/14 04:44:20;;;;;;;15.85;3.08;;;8.90;84.70;;;;;;5058251;28;20388;-43
2022/02/14 04:46:48;;;;;;;16.50;2.78;;;8.90;84.60;;;;;;5058504;28;20153;-42
2022/02/14 04:49:17;;;;;;;16.15;2.90;;;8.90;84.80;;;;;;5058117;28;20025;-43
2022/02/14 04:51:43;;;;;;;14.75;2.78;;;8.90;84.80;;;;;;5057764;28;20047;-42
2022/02/14 04:54:10;;;;;;;13.57;3.40;;;8.90;84.90;;;;;;5058070;28;20021;-43
2022/02/14 04:56:35;;;;;;;14.48;3.17;;;8.90;85.00;;;;;;5057799;28;20047;-43
2022/02/14 04:59:01;;;;;;;14.82;3.53;;;9.00;85.20;;;;;;5057950;28;20397;-42
2022/02/14 05:01:27;;;;;;;17.02;3.10;;;9.00;85.10;;;;;;5057875;28;20036;-43
2022/02/14 05:03:53;;;;;;;17.55;3.80;;;9.00;85.30;;;;;;5057724;28;20032;-42
2022/02/14 05:06:19;;;;;;;10.20;2.83;;;9.00;85.30;;;;;;5057655;28;20025;-43
2022/02/14 05:08:45;;;;;;;19.00;3.10;;;9.10;85.20;;;;;;5057248;28;20035;-42
2022/02/14 05:11:11;;;;;;;19.77;3.38;;;9.10;85.30;;;;;;5057495;28;20024;-42
2022/02/14 05:13:41;;;;;;;16.15;2.88;;;9.10;85.20;;;;;;5057676;28;20025;-42
2022/02/14 05:16:10;;;;;;;10.18;2.00;;;9.20;85.60;;;;;;5057573;28;20017;-42
2022/02/14 05:18:36;;;;;;;10.90;2.40;;;9.20;85.40;;;;;;5057855;28;20033;-44
2022/02/14 05:21:02;;;;;;;11.10;2.08;;;9.30;85.20;;;;;;5057590;28;20052;-43
2022/02/14 05:23:28;;;;;;;8.05;1.27;;;9.20;84.90;;;;;;5057632;28;20067;-44
2022/02/14 05:25:54;;;;;;;8.48;1.60;;;9.20;84.70;;;;;;5057398;28;20021;-43
2022/02/14 05:28:20;;;;;;;9.52;1.40;;;9.20;84.60;;;;;;5057285;28;20025;-42
2022/02/14 05:30:45;;;;;;;12.70;2.03;;;9.20;84.70;;;;;;5057615;28;20380;-43
2022/02/14 05:33:11;;;;;;;13.82;2.22;;;9.20;84.80;;;;;;5057303;28;20025;-42
2022/02/14 05:35:37;;;;;;;6.07;1.73;;;9.20;84.80;;;;;;5057528;28;20017;-43
2022/02/14 05:38:03;;;;;;;8.95;1.88;;;9.20;84.70;;;;;;5057478;28;20025;-43
2022/02/14 05:40:29;;;;;;;14.00;2.15;;;9.20;84.70;;;;;;5056766;28;20053;-42
2022/02/14 05:42:55;;;;;;;10.52;2.20;;;9.20;84.80;;;;;;5057386;28;20025;-42
2022/02/14 05:45:21;;;;;;;11.48;2.58;;;9.20;84.90;;;;;;5057486;28;20123;-43
2022/02/14 05:47:46;;;;;;;11.02;1.85;;;9.20;84.80;;;;;;5057304;28;20036;-42
2022/02/14 05:50:12;;;;;;;7.95;1.92;;;9.10;84.80;;;;;;5057379;28;20025;-43
2022/02/14 05:52:41;;;;;;;9.57;1.90;;;9.20;84.90;;;;;;5057371;28;20025;-43
2022/02/14 05:55:08;;;;;;;7.85;1.73;;;9.20;84.90;;;;;;5057150;28;20127;-42
2022/02/14 05:57:34;;;;;;;9.95;2.45;;;9.20;85.00;;;;;;5057050;28;20028;-42
2022/02/14 06:00:00;;;;;;;11.93;2.15;;;9.20;85.00;;;;;;5056871;28;20021;-43
2022/02/14 06:02:26;;;;;;;11.38;2.78;;;9.20;85.10;;;;;;5057146;28;20029;-43
2022/02/14 06:04:52;;;;;;;10.15;1.83;;;9.20;85.10;;;;;;5057062;28;20013;-43
2022/02/14 06:07:19;;;;;;;9.25;1.83;;;9.20;85.20;;;;;;5057161;28;20029;-42
2022/02/14 06:09:44;;;;;;;13.73;2.72;;;9.20;85.30;;;;;;5057033;28;20021;-43
2022/02/14 06:12:10;;;;;;;14.82;3.83;;;9.30;85.30;;;;;;5057130;28;20496;-44
2022/02/14 06:14:36;;;;;;;13.10;2.45;;;9.30;85.30;;;;;;5057185;28;20021;-43
2022/02/14 06:17:02;;;;;;;11.40;2.58;;;9.30;85.40;;;;;;5057077;28;20512;-42
2022/02/14 06:19:28;;;;;;;15.80;3.90;;;9.30;85.40;;;;;;5057303;28;20476;-43
2022/02/14 06:21:53;;;;;;;13.70;3.92;;;9.30;85.50;;;;;;5056779;28;20052;-42
2022/02/14 06:24:19;;;;;;;11.68;2.63;;;9.30;85.40;;;;;;5057029;28;20049;-43
2022/02/14 06:26:45;;;;;;;12.63;2.83;;;9.40;85.20;;;;;;5056732;28;20025;-42
2022/02/14 06:29:11;;;;;;;15.93;8.02;;;9.40;85.20;;;;;;5057550;28;20040;-43
2022/02/14 06:31:37;;;;;;;12.80;4.55;;;9.40;85.20;;;;;;5057020;28;20029;-42
2022/02/14 06:34:02;;;;;;;9.50;2.40;;;9.40;85.10;;;;;;5057170;28;20526;-42
2022/02/14 06:36:28;;;;;;;8.02;1.80;;;9.30;84.90;;;;;;5057005;28;20021;-43
2022/02/14 06:38:56;;;;;;;8.43;1.95;;;9.30;84.90;;;;;;5056867;28;20036;-42
2022/02/14 06:41:23;;;;;;;5.68;1.80;;;9.30;84.80;;;;;;5056760;28;20029;-43
2022/02/14 06:43:50;;;;;;;9.90;2.22;;;9.30;84.70;;;;;;5056649;28;20499;-44
2022/02/14 06:46:16;;;;;;;8.45;2.00;;;9.30;84.70;;;;;;5056802;28;20048;-42
2022/02/14 06:48:42;;;;;;;8.02;1.77;;;9.20;84.70;;;;;;5057401;28;20424;-42
2022/02/14 06:51:09;;;;;;;9.00;1.77;;;9.20;84.60;;;;;;5056991;28;20540;-42
2022/02/14 06:53:35;;;;;;;12.15;2.42;;;9.20;84.70;;;;;;5058142;28;20017;-43
2022/02/14 06:56:05;;;;;;;13.82;2.70;;;9.10;84.70;;;;;;5060378;28;20025;-42
2022/02/14 06:58:32;;;;;;;12.07;2.72;;;9.10;84.60;;;;;;5060444;28;20036;-42
2022/02/14 07:00:58;;;;;;;10.18;2.15;;;9.10;84.80;;;;;;5060355;28;20492;-42
2022/02/14 07:03:24;;;;;;;11.30;2.25;;;9.10;84.70;;;;;;5060524;28;20166;-42
2022/02/14 07:05:49;;;;;;;8.93;1.90;;;9.10;84.70;;;;;;5060267;28;20394;-41
2022/02/14 07:08:15;;;;;;;8.48;1.77;;;9.00;84.80;;;;;;5060370;28;20021;-41
2022/02/14 07:10:41;;;;;;;11.00;2.13;;;9.00;84.80;;;;;;5060171;28;20036;-41
2022/02/14 07:13:07;;;;;;;8.07;1.95;;;9.00;84.80;;;;;;5060299;28;20025;-42
2022/02/14 07:15:32;;;;;;;14.27;2.72;;;9.00;84.80;;;;;;5060259;28;20091;-41
2022/02/14 07:18:01;;;;;;;11.73;2.72;;;9.00;84.80;;;;;;5060074;28;20025;-42
2022/02/14 07:20:27;;;;;;;13.25;2.88;;;9.00;84.90;;;;;;5059777;28;20049;-42
2022/02/14 07:22:53;;;;;;;14.75;3.38;;;9.00;85.00;;;;;;5060137;28;20025;-41
2022/02/14 07:25:18;;;;;;;18.13;3.22;;;9.00;85.00;;;;;;5060043;28;20044;-41
2022/02/14 07:27:44;;;;;;;16.33;2.80;;;9.00;85.20;;;;;;5059924;28;20047;-41
2022/02/14 07:30:12;;;;;;;15.27;3.60;;;9.00;85.20;;;;;;5059724;28;20021;-42
2022/02/14 07:32:39;;;;;;;17.17;4.05;;;9.00;85.30;;;;;;5059837;28;20024;-41
2022/02/14 07:35:05;;;;;;;13.05;3.33;;;9.00;85.40;;;;;;5059697;28;20032;-42
2022/02/14 07:37:31;;;;;;;15.43;3.25;;;9.00;85.40;;;;;;5060126;28;20035;-42
2022/02/14 07:39:57;;;;;;;12.50;2.97;;;9.00;85.30;;;;;;5059551;28;20396;-42
2022/02/14 07:42:23;;;;;;;11.10;3.28;;;9.00;85.40;;;;;;5059800;28;20031;-41
2022/02/14 07:44:49;;;;;;;10.30;2.58;;;9.10;85.30;;;;;;5059515;28;20096;-42
2022/02/14 07:47:15;;;;;;;13.27;3.38;;;9.10;85.40;;;;;;5059615;28;20021;-42
2022/02/14 07:49:40;;;;;;;12.45;3.60;;;9.10;85.30;;;;;;5059613;28;20057;-42
2022/02/14 07:52:06;;;;;;;10.20;2.70;;;9.10;85.40;;;;;;5059414;28;20069;-42
2022/02/14 07:54:32;;;;;;;13.82;2.47;;;9.10;85.20;;;;;;5059346;28;20028;-42
2022/02/14 07:56:58;;;;;;;13.65;3.05;;;9.10;85.40;;;;;;5059283;28;20025;-42
2022/02/14 07:59:24;;;;;;;11.90;2.47;;;9.10;85.40;;;;;;5059290;28;20029;-42
2022/02/14 08:01:49;;;;;;;13.27;2.78;;;9.20;85.40;;;;;;5059398;28;20017;-42
2022/02/14 08:04:15;;;;;;;15.32;3.08;;;9.20;85.60;;;;;;5059310;28;20378;-42
2022/02/14 08:06:41;;;;;;;8.77;2.42;;;9.20;85.50;;;;;;5059028;28;20047;-42
2022/02/14 08:09:10;;;;;;;12.20;3.22;;;9.20;85.70;;;;;;5059253;28;20036;-42
2022/02/14 08:11:36;;;;;;;12.07;2.63;;;9.20;85.60;;;;;;5059219;28;20021;-45
2022/02/14 08:14:02;;;;;;;13.02;2.53;;;9.30;85.70;;;;;;5058545;28;20543;-43
2022/02/14 08:16:28;;;;;;;13.27;3.08;;;9.30;85.70;;;;;;5058332;28;20021;-46
2022/02/14 08:18:54;;;;;;;11.93;3.20;;;9.40;85.80;;;;;;5058267;28;20032;-47
2022/02/14 08:21:20;;;;;;;13.27;3.25;;;9.40;85.90;;;;;;5058221;28;20033;-46
2022/02/14 08:23:45;;;;;;;8.23;2.13;;;9.50;86.20;;;;;;5058203;28;20104;-46
2022/02/14 08:26:11;;;;;;;13.02;2.10;;;9.50;86.00;;;;;;5057332;28;20021;-42
2022/02/14 08:28:38;;;;;;;8.70;2.25;;;9.60;85.80;;;;;;5057462;28;20104;-43
2022/02/14 08:31:05;;;;;;;8.98;2.00;;;9.60;85.60;;;;;;5058361;28;20025;-45
2022/02/14 08:33:31;;;;;;;8.43;1.70;;;9.60;85.50;;;;;;5058038;28;20100;-45
2022/02/14 08:35:57;;;;;;;6.80;1.65;;;9.70;85.20;;;;;;5058256;28;20056;-44
2022/02/14 08:38:23;;;;;;;10.40;2.15;;;9.60;85.10;;;;;;5058170;28;20035;-45
2022/02/14 08:40:49;;;;;;;10.77;1.70;;;9.60;85.10;;;;;;5057838;28;20496;-46
2022/02/14 08:43:15;;;;;;;10.38;1.58;;;9.60;85.30;;;;;;5058257;28;20134;-47
2022/02/14 08:45:41;;;;;;;8.70;2.05;;;9.70;85.10;;;;;;5058052;28;20033;-47
2022/02/14 08:48:07;;;;;;;8.35;2.00;;;9.60;85.60;;;;;;5057741;28;20446;-45
2022/02/14 08:50:33;;;;;;;11.32;2.35;;;9.60;85.20;;;;;;5057682;28;20511;-45
2022/02/14 08:53:03;;;;;;;10.30;2.60;;;9.70;85.50;;;;;;5057806;28;20029;-45
2022/02/14 08:55:29;;;;;;;13.10;2.25;;;9.70;85.60;;;;;;5057999;28;20381;-46
2022/02/14 08:57:55;;;;;;;10.63;2.40;;;9.70;85.50;;;;;;5057788;28;20029;-47
2022/02/14 09:00:21;;;;;;;9.05;2.15;;;9.80;85.70;;;;;;5058007;28;20131;-44
2022/02/14 09:02:47;;;;;;;17.30;2.47;;;9.80;85.70;;;;;;5057522;28;20025;-42
2022/02/14 09:05:14;;;;;;;11.40;3.47;;;9.80;85.80;;;;;;5057730;28;20373;-43
2022/02/14 09:07:40;;;;;;;11.48;2.53;;;9.90;85.80;;;;;;5057359;28;20392;-43
2022/02/14 09:10:07;;;;;;;13.10;2.13;;;10.00;85.70;;;;;;5057536;28;20097;-47
2022/02/14 09:12:33;;;;;;;12.88;2.75;;;10.00;85.70;;;;;;5057624;28;20082;-48
2022/02/14 09:15:00;;;;;;;9.30;1.70;;;10.10;85.60;;;;;;5057559;28;20013;-44
2022/02/14 09:17:26;;;;;;;10.40;2.28;;;10.10;85.50;;;;;;5057062;28;20039;-45
2022/02/14 09:19:52;;;;;;;9.25;2.28;;;10.20;85.60;;;;;;5057495;28;20420;-42
2022/02/14 09:22:18;;;;;;;11.20;2.33;;;10.20;85.60;;;;;;5056406;28;20091;-42
2022/02/14 09:24:44;;;;;;;13.13;2.90;;;10.20;85.80;;;;;;5057335;28;20500;-45
2022/02/14 09:27:10;;;;;;;16.33;3.17;;;10.30;85.70;;;;;;5057656;28;20029;-42
2022/02/14 09:29:37;;;;;;;13.43;2.30;;;10.40;85.80;;;;;;5058033;28;20020;-42
2022/02/14 09:32:06;;;;;;;10.25;2.30;;;10.40;85.60;;;;;;5057842;28;20090;-43
2022/02/14 09:34:31;;;;;;;11.75;2.40;;;10.40;85.50;;;;;;5058076;28;20017;-43
2022/02/14 09:36:58;;;;;;;10.75;2.38;;;10.50;85.60;;;;;;5057795;28;20378;-42
2022/02/14 09:39:29;;;;;;;11.13;2.40;;;10.50;85.50;;;;;;5057555;28;20031;-42
2022/02/14 09:42:01;;;;;;;11.30;2.13;;;10.50;85.50;;;;;;5057326;28;20033;-42
2022/02/14 09:44:28;;;;;;;12.00;2.00;;;10.60;85.50;;;;;;5057452;28;20563;-42
2022/02/14 09:46:54;;;;;;;13.18;2.45;;;10.60;85.10;;;;;;5057408;28;20029;-42
2022/02/14 09:49:20;;;;;;;10.30;2.60;;;10.60;85.00;;;;;;5057281;28;20029;-42
2022/02/14 09:51:47;;;;;;;8.88;1.90;;;10.70;85.30;;;;;;5057700;28;20108;-41
2022/02/14 09:54:13;;;;;;;11.10;2.17;;;10.70;85.40;;;;;;5057398;28;20025;-42
2022/02/14 09:56:40;;;;;;;13.73;2.35;;;10.80;85.30;;;;;;5057452;28;20025;-41
2022/02/14 09:59:06;;;;;;;10.35;2.40;;;10.80;85.30;;;;;;5057863;28;20017;-42
2022/02/14 10:01:33;;;;;;;16.75;2.30;;;10.80;85.10;;;;;;5057390;28;20025;-49
2022/02/14 10:04:00;;;;;;;14.18;2.40;;;10.90;83.60;;;;;;5057352;28;20377;-46
2022/02/14 10:06:27;;;;;;;12.27;3.03;;;11.20;79.60;;;;;;5057539;28;20029;-46
2022/02/14 10:09:19;;;;;;;12.05;3.30;;;11.80;80.70;;;;;;5057402;28;20531;-44
2022/02/14 10:11:59;;;;;;;11.23;2.70;;;12.70;84.10;;;;;;5057048;28;20079;-45
2022/02/14 10:14:25;;;;;;;12.20;2.40;;;13.70;76.20;;;;;;5057198;28;20110;-46
2022/02/14 10:17:22;;;;;;;10.48;2.47;;;14.60;76.90;;;;;;5057251;28;20036;-46
2022/02/14 10:19:59;;;;;;;9.98;2.13;;;15.20;75.10;;;;;;5057164;28;20024;-47
2022/02/14 10:22:26;;;;;;;11.43;2.80;;;15.40;71.30;;;;;;5056816;28;20110;-49
2022/02/14 10:24:52;;;;;;;11.95;2.30;;;15.30;71.00;;;;;;5057122;28;20049;-44
2022/02/14 10:27:33;;;;;;;10.52;2.17;;;15.00;72.20;;;;;;5058527;28;20545;-45
2022/02/14 10:30:10;;;;;;;8.20;1.90;;;14.60;70.20;;;;;;5061031;28;20036;-45
2022/02/14 10:32:53;;;;;;;8.68;2.00;;;14.20;70.40;;;;;;5061106;28;20074;-47
2022/02/14 10:35:19;;;;;;;5.68;1.45;;;13.70;72.90;;;;;;5060759;28;20036;-44
2022/02/14 10:37:46;;;;;;;7.30;1.80;;;13.30;71.10;;;;;;5060773;28;20473;-47
2022/02/14 10:40:38;;;;;;;8.07;2.45;;;13.40;73.90;;;;;;5060884;28;20037;-45
2022/02/14 10:43:04;;;;;;;8.93;2.15;;;14.10;74.40;;;;;;5060687;28;20032;-46
2022/02/14 10:45:30;;;;;;;5.93;1.65;;;14.90;70.40;;;;;;5060917;28;20495;-45
2022/02/14 10:48:01;;;;;;;5.68;1.30;;;15.40;69.80;;;;;;5060723;28;20029;-44
2022/02/14 10:50:27;;;;;;;9.20;1.75;;;15.80;71.10;;;;;;5059456;28;20025;-48
2022/02/14 10:52:56;;;;;;;6.35;1.40;;;16.20;69.00;;;;;;5059870;28;20480;-47
2022/02/14 10:55:27;;;;;;;4.95;1.00;;;16.90;65.30;;;;;;5059865;28;20032;-46
2022/02/14 10:57:55;;;;;;;6.78;0.93;;;17.40;64.40;;;;;;5059670;28;20508;-45
2022/02/14 11:00:30;;;;;;;4.50;1.02;;;17.90;66.90;;;;;;5059798;28;20500;-49
2022/02/14 11:02:58;;;;;;;3.92;1.15;;;18.40;63.60;;;;;;5059979;28;20021;-47
2022/02/14 11:05:26;;;;;;;4.30;0.88;;;18.90;65.80;;;;;;5060493;28;20037;-47
2022/02/14 11:07:53;;;;;;;4.82;0.95;;;18.90;64.00;;;;;;5060364;28;20086;-46
2022/02/14 11:10:20;;;;;;;2.33;0.73;;;18.10;60.40;;;;;;5060156;28;20108;-45
2022/02/14 11:12:54;;;;;;;1.05;0.52;;;17.70;61.90;;;;;;5060572;28;20020;-46
2022/02/14 11:15:26;;;;;;;0.77;0.47;;;18.00;61.70;;;;;;5060097;28;20388;-45
2022/02/14 11:18:08;;;;;;;2.65;0.50;;;18.40;60.00;;;;;;5059839;28;20029;-45
2022/02/14 11:20:34;;;;;;;1.40;0.45;;;19.10;61.60;;;;;;5060179;28;20045;-47
2022/02/14 11:23:03;;;;;;;1.13;0.30;;;19.80;58.70;;;;;;5059967;28;20501;-44
2022/02/14 11:25:48;;;;;;;2.38;0.30;;;20.40;57.30;;;;;;5059947;28;20024;-49
2022/02/14 11:28:23;;;;;;;2.20;0.60;;;20.80;57.20;;;;;;5060244;28;20104;-47
2022/02/14 11:31:04;;;;;;;2.10;0.70;;;21.20;59.30;;;;;;5060058;28;20025;-45
2022/02/14 11:33:30;;;;;;;0.95;0.38;;;21.30;56.40;;;;;;5060229;28;20044;-46
2022/02/14 11:35:58;;;;;;;1.00;0.22;;;21.60;55.40;;;;;;5060105;28;20550;-45
2022/02/14 11:38:44;;;;;;;2.05;0.32;;;21.60;49.40;;;;;;5059351;28;20029;-45
2022/02/14 11:41:33;;;;;;;1.88;0.52;;;21.80;53.80;;;;;;5059614;28;20028;-45
2022/02/14 11:44:11;;;;;;;1.92;0.40;;;21.90;47.80;;;;;;5059344;28;20109;-46
2022/02/14 11:46:55;;;;;;;2.10;0.55;;;21.80;53.90;;;;;;5059592;28;20036;-45
2022/02/14 11:49:22;;;;;;;2.25;0.80;;;21.90;54.40;;;;;;5059921;28;20115;-50
2022/02/14 11:51:55;;;;;;;15.35;8.45;;;22.20;52.00;;;;;;5059407;28;20029;-45
2022/02/14 11:54:34;;;;;;;1.67;1.10;;;22.40;49.80;;;;;;5059455;28;20017;-45
2022/02/14 11:57:14;;;;;;;3.55;0.50;;;21.90;48.20;;;;;;5059498;28;20025;-46
2022/02/14 11:59:40;;;;;;;2.90;1.20;;;21.80;53.40;;;;;;5059421;28;20378;-45
2022/02/14 12:02:06;;;;;;;2.72;0.60;;;22.20;51.40;;;;;;5059201;28;20029;-45
2022/02/14 12:04:32;;;;;;;3.65;2.08;;;22.90;50.50;;;;;;5059353;28;20099;-46
2022/02/14 12:07:25;;;;;;;1.50;0.80;;;23.00;47.60;;;;;;5059251;28;20057;-51
2022/02/14 12:09:57;;;;;;;2.63;1.50;;;22.90;46.10;;;;;;5059099;28;20025;-46
2022/02/14 12:13:03;;;;;;;3.35;1.13;;;23.10;48.00;;;;;;5059045;28;20107;-48
2022/02/14 12:21:05;;;;;;;4.93;1.42;;;22.80;46.90;;;;;;5058797;28;20076;-47
2022/02/14 12:23:37;;;;;;;7.72;4.13;;;22.70;47.30;;;;;;5059019;28;20029;-47
2022/02/14 12:26:07;;;;;;;6.30;3.35;;;22.20;47.90;;;;;;5059185;28;20025;-46
2022/02/14 12:28:35;;;;;;;7.55;5.43;;;21.30;47.50;;;;;;5058599;28;20029;-48
2022/02/14 12:31:01;;;;;;;5.80;2.47;;;21.30;49.30;;;;;;5058475;28;20025;-49
2022/02/14 12:33:27;;;;;;;9.88;3.33;;;21.80;49.20;;;;;;5058607;28;20053;-46
2022/02/14 12:35:56;;;;;;;5.45;2.00;;;21.70;45.60;;;;;;5058585;28;20370;-45
2022/02/14 12:38:36;;;;;;;6.05;2.97;;;20.60;47.10;;;;;;5058908;28;20033;-44
2022/02/14 12:41:05;;;;;;;11.23;9.63;;;19.30;49.80;;;;;;5058726;28;20031;-45
2022/02/14 12:43:40;;;;;;;9.48;6.05;;;18.40;54.00;;;;;;5058449;28;20029;-46
2022/02/14 12:46:12;;;;;;;4.97;2.35;;;18.00;54.10;;;;;;5058639;28;20043;-46
2022/02/14 12:48:43;;;;;;;4.03;1.55;;;18.80;55.00;;;;;;5058447;28;20059;-46
2022/02/14 12:51:28;;;;;;;4.57;1.50;;;20.00;51.80;;;;;;5057621;28;20021;-45
2022/02/14 12:53:56;;;;;;;5.72;1.40;;;21.10;52.00;;;;;;5058848;28;20032;-47
2022/02/14 12:56:31;;;;;;;5.40;1.23;;;22.00;50.40;;;;;;5058268;28;20088;-49